Bisti, New Mexico
Current Conditions -  °F | °C
As of 6:53 AM on Saturday 20 Dec 2014 (Local Time) from KFMN Reporting Station
Overcast Overcast  
Wind Chill: 22°   Ceiling: 400
Heat Index: 28°   Visibility: 7mi
Dew Point: 25°   Wind: 6mph
Humidity: 88%   Direction: 90°E
Pressure: 30.18"   Gusts: NA
Location:  36.3443°N, 108.144°W
Report Text: KFMN 201353Z 09005KT 7SM OVC004 M02/M04 A3018 RMK AO2 SLP242 T10221039
Loading
Personal Weather Stations






























Interactive Weather Map New forecast layout! Learn more

10-Day Weather Forecast

Advertisements
Track Severe Weather on mobile